Time;durP1;ratioP1;P1;durP2;ratioP2;P2;SDS_P1;SDS_P2;PMS_P1;PMS_P2;Temp;Humidity;BMP_temperature;BMP_pressure;BME280_temperature;BME280_humidity;BME280_pressure;Samples;Min_cycle;Max_cycle;Signal;HPM_P1;HPM_P2
2020/12/15 00:00:41;;;;;;;10.68;6.97;;;7.80;99.90;;;;;;5062012;28;20528;-85
2020/12/15 00:03:07;;;;;;;13.10;7.43;;;7.80;99.90;;;;;;5080609;28;20217;-85
2020/12/15 00:05:35;;;;;;;9.30;6.75;;;7.70;99.90;;;;;;5068397;28;20288;-83
2020/12/15 00:08:02;;;;;;;7.60;5.50;;;7.80;99.90;;;;;;5076365;28;20214;-84
2020/12/15 00:10:29;;;;;;;9.18;6.25;;;7.80;99.90;;;;;;5065948;28;20226;-84
2020/12/15 00:12:55;;;;;;;8.38;5.63;;;7.90;99.90;;;;;;5056751;28;20211;-85
2020/12/15 00:15:22;;;;;;;9.73;6.03;;;8.00;99.90;;;;;;5068611;28;20256;-85
2020/12/15 00:17:48;;;;;;;10.68;5.68;;;8.10;99.90;;;;;;5077292;28;20232;-85
2020/12/15 00:20:15;;;;;;;9.65;6.03;;;7.90;99.90;;;;;;5076204;28;20222;-84
2020/12/15 00:22:42;;;;;;;10.00;6.38;;;8.00;99.90;;;;;;5076310;28;20242;-85
2020/12/15 00:25:09;;;;;;;8.88;5.85;;;8.00;99.90;;;;;;5077143;28;20201;-83
2020/12/15 00:27:36;;;;;;;8.93;6.03;;;8.00;99.90;;;;;;5078495;28;20213;-86
2020/12/15 00:30:03;;;;;;;9.35;5.50;;;8.00;99.90;;;;;;5069759;28;20198;-85
2020/12/15 00:32:29;;;;;;;8.95;5.18;;;8.00;99.90;;;;;;5089757;28;20244;-82
2020/12/15 00:34:56;;;;;;;7.45;5.00;;;7.80;99.90;;;;;;5090978;28;20232;-82
2020/12/15 00:37:23;;;;;;;6.95;4.90;;;7.80;99.90;;;;;;5088468;28;20225;-84
2020/12/15 00:39:50;;;;;;;7.95;5.32;;;8.20;99.90;;;;;;5090814;28;20293;-84
2020/12/15 00:42:17;;;;;;;10.55;5.45;;;8.20;99.90;;;;;;5095535;28;20213;-85
2020/12/15 00:44:44;;;;;;;8.85;4.97;;;8.20;99.90;;;;;;5077167;28;20225;-84
2020/12/15 00:47:11;;;;;;;7.63;4.90;;;8.30;99.90;;;;;;5067514;28;20260;-84
2020/12/15 00:49:37;;;;;;;8.02;4.90;;;8.20;99.90;;;;;;5078161;28;20212;-82
2020/12/15 00:52:04;;;;;;;7.97;5.18;;;8.20;99.90;;;;;;5085325;28;20236;-83
2020/12/15 00:54:30;;;;;;;10.32;5.25;;;7.90;99.90;;;;;;5073614;28;20210;-83
2020/12/15 00:56:58;;;;;;;9.85;5.95;;;8.10;99.90;;;;;;5075404;28;20233;-83
2020/12/15 00:59:24;;;;;;;7.60;4.78;;;7.90;99.90;;;;;;5086111;28;20236;-84
2020/12/15 01:01:51;;;;;;;8.50;5.10;;;8.00;99.90;;;;;;5083660;28;20226;-83
2020/12/15 01:04:17;;;;;;;8.15;5.43;;;7.90;99.90;;;;;;5076467;28;20205;-84
2020/12/15 01:06:49;;;;;;;6.80;4.90;;;7.80;99.90;;;;;;5082822;28;20208;-84
2020/12/15 01:09:16;;;;;;;8.50;6.32;;;7.90;99.90;;;;;;5070500;28;20608;-84
2020/12/15 01:11:43;;;;;;;7.90;4.70;;;7.90;99.90;;;;;;5082086;28;20229;-85
2020/12/15 01:14:10;;;;;;;9.27;4.63;;;8.10;99.90;;;;;;5082341;28;20228;-85
2020/12/15 01:16:37;;;;;;;6.85;4.55;;;7.90;99.90;;;;;;5085516;28;20284;-85
2020/12/15 01:19:03;;;;;;;6.28;4.32;;;8.00;99.90;;;;;;5088431;28;20197;-84
2020/12/15 01:21:30;;;;;;;7.72;4.50;;;8.30;99.90;;;;;;5084496;28;20221;-85
2020/12/15 01:23:57;;;;;;;8.00;5.00;;;8.50;99.90;;;;;;5082044;28;20211;-83
2020/12/15 01:26:24;;;;;;;7.53;4.72;;;8.30;99.90;;;;;;5063884;28;20203;-85
2020/12/15 01:28:51;;;;;;;8.25;4.80;;;8.30;99.90;;;;;;5063249;28;20277;-85
2020/12/15 01:31:24;;;;;;;7.35;4.18;;;8.50;99.90;;;;;;5086806;28;20233;-85
2020/12/15 01:33:52;;;;;;;6.63;4.43;;;8.50;99.90;;;;;;5084027;28;20195;-84
2020/12/15 01:36:26;;;;;;;7.28;4.72;;;8.20;99.90;;;;;;5086083;28;20226;-83
2020/12/15 01:38:53;;;;;;;6.93;4.32;;;8.40;99.90;;;;;;5086101;28;20221;-84
2020/12/15 01:41:20;;;;;;;7.78;4.53;;;8.60;99.90;;;;;;5085494;28;20519;-84
2020/12/15 01:43:55;;;;;;;7.20;4.00;;;8.50;99.90;;;;;;5087321;28;20220;-85
2020/12/15 01:46:21;;;;;;;6.57;3.80;;;8.50;99.90;;;;;;5085906;28;20206;-83
2020/12/15 01:48:49;;;;;;;7.68;4.70;;;8.50;99.90;;;;;;5086189;28;20210;-85
2020/12/15 01:51:16;;;;;;;6.32;4.38;;;8.50;99.90;;;;;;5084074;28;20226;-86
2020/12/15 01:53:44;;;;;;;8.50;5.25;;;8.50;99.90;;;;;;5067610;28;20225;-82
2020/12/15 01:56:11;;;;;;;7.30;4.90;;;8.80;99.90;;;;;;5066455;28;20222;-83
2020/12/15 01:58:38;;;;;;;7.82;4.70;;;9.00;99.90;;;;;;5065072;28;20211;-84
2020/12/15 02:01:05;;;;;;;6.38;4.63;;;8.70;99.90;;;;;;5068918;28;20222;-85
2020/12/15 02:03:31;;;;;;;7.63;4.20;;;8.60;99.90;;;;;;5088533;28;20300;-83
2020/12/15 02:05:59;;;;;;;6.15;3.80;;;8.80;99.90;;;;;;5088011;28;20265;-84
2020/12/15 02:08:26;;;;;;;6.60;4.20;;;8.60;99.90;;;;;;5093169;28;20232;-83
2020/12/15 02:10:52;;;;;;;6.32;4.75;;;8.50;99.90;;;;;;5092562;28;20229;-82
2020/12/15 02:13:22;;;;;;;6.50;4.45;;;8.80;99.90;;;;;;5075505;28;20207;-82
2020/12/15 02:15:49;;;;;;;7.85;4.22;;;8.60;99.90;;;;;;5069806;28;20202;-83
2020/12/15 02:18:15;;;;;;;7.80;4.70;;;8.70;99.90;;;;;;5080320;28;20205;-82
2020/12/15 02:20:42;;;;;;;7.30;4.88;;;8.70;99.90;;;;;;5076873;28;20271;-83
2020/12/15 02:23:09;;;;;;;7.10;4.55;;;8.70;99.90;;;;;;5090511;28;20202;-84
2020/12/15 02:25:36;;;;;;;5.80;4.13;;;8.70;99.90;;;;;;5070882;28;20225;-81
2020/12/15 02:28:03;;;;;;;8.90;5.63;;;8.70;99.90;;;;;;5081600;28;20338;-84
2020/12/15 02:30:30;;;;;;;7.15;4.70;;;8.60;99.90;;;;;;5090502;28;20584;-86
2020/12/15 02:32:56;;;;;;;7.93;4.55;;;8.70;99.90;;;;;;5083669;28;20207;-86
2020/12/15 02:35:23;;;;;;;7.32;4.35;;;8.80;99.90;;;;;;5086625;28;20538;-84
2020/12/15 02:37:49;;;;;;;5.60;3.80;;;8.50;99.90;;;;;;5080566;28;20234;-83
2020/12/15 02:40:17;;;;;;;9.18;5.38;;;8.50;99.90;;;;;;5080545;28;20237;-82
2020/12/15 02:42:43;;;;;;;7.57;4.57;;;8.60;99.90;;;;;;5059989;22;20241;-83
2020/12/15 02:45:10;;;;;;;6.40;4.35;;;8.50;99.90;;;;;;5035424;28;20203;-83
2020/12/15 02:47:36;;;;;;;7.05;5.00;;;8.50;99.90;;;;;;5039247;28;20221;-82
2020/12/15 02:50:04;;;;;;;9.05;3.70;;;8.60;99.90;;;;;;5057125;28;20225;-83
2020/12/15 02:52:30;;;;;;;6.72;4.28;;;8.60;99.90;;;;;;5050883;28;20234;-83
2020/12/15 02:54:57;;;;;;;6.55;4.60;;;8.80;99.90;;;;;;5039442;28;20210;-84
2020/12/15 02:57:24;;;;;;;6.15;4.47;;;8.80;99.90;;;;;;5038278;28;20250;-83
2020/12/15 02:59:51;;;;;;;7.80;5.47;;;8.60;99.90;;;;;;5037031;28;20298;-83
2020/12/15 03:02:21;;;;;;;8.38;4.82;;;8.80;99.90;;;;;;5050115;28;20224;-84
2020/12/15 03:04:47;;;;;;;9.32;5.90;;;8.80;99.90;;;;;;5059888;28;20241;-84
2020/12/15 03:07:14;;;;;;;8.50;6.45;;;8.90;99.90;;;;;;5041827;28;20207;-84
2020/12/15 03:09:44;;;;;;;15.52;7.45;;;8.60;99.90;;;;;;5039788;28;20218;-83
2020/12/15 03:12:10;;;;;;;11.45;6.82;;;8.30;99.90;;;;;;5039517;28;20281;-83
2020/12/15 03:14:38;;;;;;;12.68;7.70;;;8.30;99.90;;;;;;5043315;28;20201;-83
2020/12/15 03:17:04;;;;;;;10.38;7.28;;;8.30;99.90;;;;;;5041867;28;20227;-84
2020/12/15 03:19:31;;;;;;;11.00;5.72;;;8.20;99.90;;;;;;5035978;28;20207;-84
2020/12/15 03:21:57;;;;;;;10.15;5.70;;;7.90;99.90;;;;;;5036797;28;20218;-81
2020/12/15 03:24:24;;;;;;;12.75;6.13;;;8.40;99.90;;;;;;5036224;28;20234;-83
2020/12/15 03:26:50;;;;;;;9.40;6.63;;;8.60;99.90;;;;;;5034988;28;20203;-83
2020/12/15 03:29:17;;;;;;;8.52;3.80;;;8.60;99.90;;;;;;5043270;28;20204;-83
2020/12/15 03:31:44;;;;;;;9.68;5.50;;;8.60;99.90;;;;;;5034875;28;20243;-84
2020/12/15 03:34:11;;;;;;;11.55;7.55;;;8.50;99.90;;;;;;5033990;28;20199;-83
2020/12/15 03:36:37;;;;;;;10.95;5.80;;;8.40;99.90;;;;;;5033371;28;20227;-84
2020/12/15 03:39:06;;;;;;;10.88;6.57;;;8.30;99.90;;;;;;5032692;28;20207;-82
2020/12/15 03:41:33;;;;;;;10.75;6.53;;;8.40;99.90;;;;;;5038444;28;20608;-82
2020/12/15 03:43:59;;;;;;;9.00;6.22;;;8.50;99.90;;;;;;5050689;28;20198;-81
2020/12/15 03:46:26;;;;;;;9.02;5.88;;;8.60;99.90;;;;;;5047384;28;20642;-83
2020/12/15 03:48:54;;;;;;;11.60;6.80;;;8.80;99.90;;;;;;5037990;28;20203;-84
2020/12/15 03:51:20;;;;;;;11.10;5.80;;;8.90;99.90;;;;;;5038226;28;20582;-84
2020/12/15 03:53:47;;;;;;;11.50;6.20;;;8.90;99.90;;;;;;5045706;28;20199;-84
2020/12/15 03:56:13;;;;;;;5.50;3.60;;;9.10;99.90;;;;;;5036675;28;20223;-83
2020/12/15 03:58:40;;;;;;;7.43;4.32;;;9.00;99.90;;;;;;5036604;28;20337;-83
2020/12/15 04:01:07;;;;;;;5.60;3.55;;;8.80;99.90;;;;;;5037806;28;20223;-84
2020/12/15 04:03:33;;;;;;;6.13;4.00;;;9.00;99.90;;;;;;5037832;28;20268;-84
2020/12/15 04:06:01;;;;;;;5.70;3.60;;;9.00;99.90;;;;;;5037815;28;20215;-82
2020/12/15 04:08:27;;;;;;;8.15;4.88;;;8.80;99.90;;;;;;5042153;28;20210;-85
2020/12/15 04:10:54;;;;;;;6.90;4.70;;;9.00;99.90;;;;;;5058158;28;20214;-84
2020/12/15 04:13:21;;;;;;;5.70;4.10;;;8.80;99.90;;;;;;5042550;28;20218;-83
2020/12/15 04:15:48;;;;;;;7.25;4.10;;;9.00;99.90;;;;;;5044272;28;20237;-84
2020/12/15 04:18:15;;;;;;;6.88;4.30;;;8.90;99.90;;;;;;5037326;28;20219;-84
2020/12/15 04:20:41;;;;;;;6.90;4.22;;;9.00;99.90;;;;;;5037894;28;20321;-84
2020/12/15 04:23:08;;;;;;;9.73;4.40;;;9.00;99.90;;;;;;5037277;28;20576;-84
2020/12/15 04:25:50;;;;;;;6.57;4.05;;;9.00;99.90;;;;;;5036916;28;20638;-83
2020/12/15 04:28:16;;;;;;;8.43;4.30;;;9.00;99.90;;;;;;5036840;28;20203;-84
2020/12/15 04:30:44;;;;;;;7.00;4.70;;;8.80;99.90;;;;;;5037505;28;20207;-85
2020/12/15 04:33:10;;;;;;;7.50;4.57;;;8.80;99.90;;;;;;5038060;28;20223;-84
2020/12/15 04:35:37;;;;;;;7.03;4.45;;;8.70;99.90;;;;;;5051136;28;20209;-82
2020/12/15 04:38:04;;;;;;;7.85;4.15;;;8.80;99.90;;;;;;5049912;28;20284;-84
2020/12/15 04:40:32;;;;;;;6.13;3.70;;;8.70;99.90;;;;;;5037232;28;20207;-82
2020/12/15 04:43:01;;;;;;;7.78;4.28;;;9.00;99.90;;;;;;5039399;28;20277;-83
2020/12/15 04:45:27;;;;;;;6.90;3.83;;;9.10;99.90;;;;;;5045911;28;20405;-84
2020/12/15 04:48:01;;;;;;;8.50;4.25;;;9.00;99.90;;;;;;5044476;28;20417;-83
2020/12/15 04:50:33;;;;;;;8.07;4.50;;;9.20;99.90;;;;;;5060722;28;20210;-84
2020/12/15 04:53:06;;;;;;;7.38;4.18;;;8.90;99.90;;;;;;5048094;28;20227;-82
2020/12/15 04:55:35;;;;;;;9.10;4.20;;;8.90;99.90;;;;;;5037323;28;20226;-83
2020/12/15 04:58:02;;;;;;;10.65;3.88;;;8.60;99.90;;;;;;5036681;28;20286;-83
2020/12/15 05:00:29;;;;;;;5.75;3.80;;;9.20;99.90;;;;;;5036261;28;20219;-83
2020/12/15 05:02:57;;;;;;;5.70;4.10;;;9.10;99.90;;;;;;5036955;28;20238;-82
2020/12/15 05:05:25;;;;;;;8.88;4.25;;;9.00;99.90;;;;;;5036787;28;20209;-81
2020/12/15 05:07:51;;;;;;;6.80;4.15;;;8.90;99.90;;;;;;5036681;28;20246;-83
2020/12/15 05:10:19;;;;;;;7.55;3.70;;;9.00;99.90;;;;;;5036968;28;20214;-84
2020/12/15 05:12:48;;;;;;;6.72;3.95;;;8.90;99.90;;;;;;5026748;28;20227;-84
2020/12/15 05:15:16;;;;;;;6.45;4.18;;;8.90;99.90;;;;;;5036721;28;20234;-84
2020/12/15 05:17:43;;;;;;;7.93;4.60;;;9.00;99.90;;;;;;5036086;28;20219;-82
2020/12/15 05:20:15;;;;;;;8.13;5.03;;;8.90;99.90;;;;;;5036409;28;20217;-84
2020/12/15 05:22:43;;;;;;;7.85;4.22;;;8.70;99.90;;;;;;5036683;28;20237;-84
2020/12/15 05:25:20;;;;;;;8.93;4.00;;;8.80;99.90;;;;;;5037491;28;20213;-86
2020/12/15 05:27:48;;;;;;;4.95;3.30;;;9.10;99.90;;;;;;5037284;28;20195;-84
2020/12/15 05:30:15;;;;;;;7.50;4.22;;;9.20;99.90;;;;;;5037230;28;20223;-83
2020/12/15 05:32:49;;;;;;;8.68;4.20;;;9.00;99.90;;;;;;5036218;28;20234;-85
2020/12/15 05:35:22;;;;;;;7.47;4.80;;;8.80;99.90;;;;;;5036164;28;20221;-85
2020/12/15 05:37:49;;;;;;;12.80;4.20;;;8.80;99.90;;;;;;5035684;28;20303;-83
2020/12/15 05:40:15;;;;;;;6.60;3.75;;;9.00;99.90;;;;;;5035023;28;20211;-85
2020/12/15 05:42:42;;;;;;;6.32;3.60;;;8.90;99.90;;;;;;5037401;28;20231;-85
2020/12/15 05:45:09;;;;;;;8.68;4.25;;;9.00;99.90;;;;;;5039777;28;20203;-85
2020/12/15 05:47:39;;;;;;;7.95;4.60;;;8.90;99.90;;;;;;5039653;28;20237;-85
2020/12/15 05:50:07;;;;;;;7.65;3.85;;;8.80;99.90;;;;;;5028339;28;20249;-84
2020/12/15 05:52:33;;;;;;;9.88;3.90;;;8.80;99.90;;;;;;5040222;28;20250;-84
2020/12/15 05:55:06;;;;;;;5.95;3.45;;;9.10;99.90;;;;;;5020242;28;20235;-83
2020/12/15 05:57:33;;;;;;;7.18;4.10;;;8.90;99.90;;;;;;5040321;28;20233;-83
2020/12/15 06:00:19;;;;;;;6.38;3.85;;;8.70;99.90;;;;;;5039924;28;20207;-84
2020/12/15 06:02:57;;;;;;;8.05;4.25;;;9.00;99.90;;;;;;5042710;28;20237;-84
2020/12/15 06:05:26;;;;;;;7.25;3.38;;;9.20;99.90;;;;;;5041955;28;20242;-84
2020/12/15 06:07:53;;;;;;;5.75;3.50;;;8.80;99.90;;;;;;5041393;28;20204;-83
2020/12/15 06:10:20;;;;;;;10.20;4.63;;;9.10;99.90;;;;;;5040204;28;20257;-84
2020/12/15 06:12:49;;;;;;;9.10;4.53;;;8.80;99.90;;;;;;5039907;28;20234;-84
2020/12/15 06:15:15;;;;;;;8.45;4.97;;;8.70;99.90;;;;;;5044759;28;20508;-82
2020/12/15 06:17:47;;;;;;;5.95;3.90;;;8.90;99.90;;;;;;5045457;28;20219;-82
2020/12/15 06:20:19;;;;;;;7.18;3.65;;;8.90;99.90;;;;;;5040482;28;20228;-83
2020/12/15 06:22:46;;;;;;;7.30;4.03;;;8.90;99.90;;;;;;5025066;28;20231;-84
2020/12/15 06:25:23;;;;;;;7.85;3.90;;;8.70;99.90;;;;;;5035790;28;20207;-81
2020/12/15 06:28:03;;;;;;;7.45;3.60;;;9.20;99.90;;;;;;5035072;28;20583;-84
2020/12/15 06:30:30;;;;;;;7.80;4.22;;;9.00;99.90;;;;;;5028851;28;20358;-82
2020/12/15 06:33:02;;;;;;;6.82;3.90;;;9.20;99.90;;;;;;5051114;28;20635;-83
2020/12/15 06:35:29;;;;;;;5.20;3.40;;;9.10;99.90;;;;;;5035278;28;20207;-83
2020/12/15 06:37:55;;;;;;;7.95;4.07;;;9.20;99.90;;;;;;5037332;28;20288;-81
2020/12/15 06:40:22;;;;;;;5.72;3.83;;;9.30;99.90;;;;;;5036623;28;20249;-80
2020/12/15 06:42:49;;;;;;;7.22;3.65;;;9.10;99.90;;;;;;5034667;28;20257;-84
2020/12/15 06:45:16;;;;;;;6.05;4.00;;;9.10;99.90;;;;;;5033845;28;20215;-82
2020/12/15 06:47:43;;;;;;;7.05;3.83;;;9.10;99.90;;;;;;5034707;28;20221;-84
2020/12/15 06:50:18;;;;;;;6.82;4.40;;;9.00;99.90;;;;;;5034637;28;20215;-82
2020/12/15 06:52:46;;;;;;;6.70;4.70;;;9.20;99.90;;;;;;5038968;28;20223;-81
2020/12/15 06:55:12;;;;;;;8.13;4.60;;;9.00;99.90;;;;;;5038800;28;20211;-81
2020/12/15 06:57:40;;;;;;;7.80;4.35;;;9.10;99.90;;;;;;5033732;28;20291;-86
2020/12/15 07:00:09;;;;;;;9.20;5.25;;;9.30;99.90;;;;;;5033582;28;20207;-82
2020/12/15 07:02:36;;;;;;;7.00;4.97;;;9.30;99.90;;;;;;5033932;28;20230;-82
2020/12/15 07:05:25;;;;;;;8.32;4.93;;;9.50;99.90;;;;;;5046243;28;20210;-81
2020/12/15 07:07:53;;;;;;;7.47;4.53;;;9.20;99.90;;;;;;5048832;28;20211;-81
2020/12/15 07:10:22;;;;;;;7.50;4.18;;;9.10;99.90;;;;;;5053785;28;20210;-82
2020/12/15 07:13:01;;;;;;;8.65;4.70;;;9.30;99.90;;;;;;5041735;28;20320;-83
2020/12/15 07:15:33;;;;;;;7.18;4.80;;;9.30;99.90;;;;;;5035750;28;20207;-82
2020/12/15 07:18:02;;;;;;;9.57;5.15;;;9.20;99.90;;;;;;5046899;28;20686;-85
2020/12/15 07:20:29;;;;;;;10.43;5.28;;;9.10;99.90;;;;;;5040383;28;20249;-84
2020/12/15 07:22:56;;;;;;;11.30;5.50;;;9.30;99.90;;;;;;5033655;28;20322;-81
2020/12/15 07:25:23;;;;;;;10.20;6.05;;;9.10;99.90;;;;;;5039667;28;20206;-84
2020/12/15 07:27:50;;;;;;;7.10;4.35;;;9.30;99.90;;;;;;5039526;28;20574;-82
2020/12/15 07:30:18;;;;;;;11.10;5.70;;;9.20;99.90;;;;;;5041950;28;20195;-84
2020/12/15 07:32:46;;;;;;;9.60;5.70;;;9.30;99.90;;;;;;5038402;28;20760;-84
2020/12/15 07:35:17;;;;;;;11.52;5.40;;;9.10;99.90;;;;;;5039056;28;20200;-84
2020/12/15 07:37:46;;;;;;;11.48;5.25;;;9.00;99.90;;;;;;5037541;28;20761;-85
2020/12/15 07:40:15;;;;;;;13.65;5.30;;;9.30;99.90;;;;;;5038266;28;20273;-82
2020/12/15 07:42:41;;;;;;;9.40;5.47;;;9.20;99.90;;;;;;5037427;28;20265;-85
2020/12/15 07:45:10;;;;;;;19.38;5.82;;;9.20;99.90;;;;;;5039761;28;20206;-84
2020/12/15 07:47:41;;;;;;;8.45;5.55;;;9.40;99.90;;;;;;5037869;28;20209;-83
2020/12/15 07:50:09;;;;;;;9.88;4.78;;;9.20;99.90;;;;;;5035867;28;20213;-84
2020/12/15 07:52:37;;;;;;;10.05;5.28;;;9.20;99.90;;;;;;5039486;28;20230;-85
2020/12/15 07:55:07;;;;;;;11.18;5.30;;;9.40;99.90;;;;;;5039961;28;20390;-82
2020/12/15 07:57:35;;;;;;;7.93;5.25;;;9.30;99.90;;;;;;5037483;28;20215;-85
2020/12/15 08:00:15;;;;;;;8.73;5.65;;;9.30;99.90;;;;;;5037555;28;20215;-82
2020/12/15 08:02:42;;;;;;;12.00;5.35;;;9.40;99.90;;;;;;5036395;28;20266;-82
2020/12/15 08:05:12;;;;;;;11.50;4.90;;;9.20;99.90;;;;;;5036071;28;20290;-82
2020/12/15 08:07:43;;;;;;;8.63;5.20;;;9.70;99.90;;;;;;5038014;28;20206;-82
2020/12/15 08:10:11;;;;;;;7.78;4.80;;;9.60;99.90;;;;;;5047290;28;20275;-83
2020/12/15 08:12:40;;;;;;;7.88;4.80;;;9.50;99.90;;;;;;5053979;28;20262;-84
2020/12/15 08:15:12;;;;;;;8.30;5.55;;;9.40;99.90;;;;;;5043084;28;20213;-83
2020/12/15 08:17:44;;;;;;;11.27;6.43;;;9.40;99.90;;;;;;5038920;28;20218;-81
2020/12/15 08:20:15;;;;;;;7.53;5.20;;;9.50;99.90;;;;;;5040158;28;20684;-81
2020/12/15 08:22:43;;;;;;;8.82;5.82;;;9.50;99.90;;;;;;5043701;28;20219;-84
2020/12/15 08:25:11;;;;;;;11.25;5.80;;;9.70;99.90;;;;;;5041831;28;20309;-83
2020/12/15 08:27:38;;;;;;;9.45;5.70;;;9.60;99.90;;;;;;5044676;28;20195;-82
2020/12/15 08:30:16;;;;;;;7.55;5.78;;;9.60;99.90;;;;;;5035383;28;20203;-84
2020/12/15 08:32:48;;;;;;;12.57;6.32;;;9.50;99.90;;;;;;5035849;28;20258;-82
2020/12/15 08:35:21;;;;;;;13.05;6.75;;;9.50;99.90;;;;;;5035771;28;20203;-82
2020/12/15 08:37:53;;;;;;;10.38;6.28;;;9.50;99.90;;;;;;5034811;28;20250;-82
2020/12/15 08:40:20;;;;;;;10.75;6.15;;;9.50;99.90;;;;;;5035846;28;20209;-82
2020/12/15 08:42:47;;;;;;;10.23;6.32;;;9.50;99.90;;;;;;5035645;28;20246;-83
2020/12/15 08:45:16;;;;;;;10.32;5.40;;;9.60;99.90;;;;;;5041816;28;20804;-83
2020/12/15 08:47:47;;;;;;;7.28;5.03;;;9.40;99.90;;;;;;5038327;28;20199;-82
2020/12/15 08:50:16;;;;;;;8.15;5.25;;;9.60;99.90;;;;;;5039522;28;20199;-82
2020/12/15 08:52:43;;;;;;;10.30;5.45;;;9.70;99.90;;;;;;5049571;28;20680;-84
2020/12/15 08:55:10;;;;;;;11.30;5.78;;;9.80;99.90;;;;;;5041348;28;20577;-84
2020/12/15 08:57:38;;;;;;;8.65;5.25;;;9.90;99.90;;;;;;5037849;28;20237;-85
2020/12/15 09:00:12;;;;;;;10.23;6.70;;;9.90;99.90;;;;;;5034764;28;20202;-84
2020/12/15 09:02:39;;;;;;;8.83;5.63;;;9.90;99.90;;;;;;5043867;28;20257;-82
2020/12/15 09:05:07;;;;;;;13.07;6.33;;;10.00;99.90;;;;;;5039545;28;20442;-82
2020/12/15 09:07:33;;;;;;;12.15;5.60;;;9.90;99.90;;;;;;5034328;28;20466;-83
2020/12/15 09:10:09;;;;;;;8.23;5.70;;;10.10;99.90;;;;;;5037446;28;20286;-82
2020/12/15 09:12:36;;;;;;;14.52;6.55;;;10.00;99.90;;;;;;5043536;28;20246;-81
2020/12/15 09:15:05;;;;;;;14.45;7.20;;;10.00;99.90;;;;;;5042959;28;20195;-83
2020/12/15 09:17:32;;;;;;;8.15;6.45;;;10.10;99.90;;;;;;5043071;28;20231;-84
2020/12/15 09:20:00;;;;;;;11.00;6.65;;;10.10;99.90;;;;;;5044629;28;20221;-83
2020/12/15 09:22:30;;;;;;;11.80;5.90;;;10.20;99.90;;;;;;5043592;28;20696;-82
2020/12/15 09:25:01;;;;;;;9.70;4.90;;;10.20;99.90;;;;;;5039885;28;20195;-80
2020/12/15 09:27:28;;;;;;;8.07;5.13;;;10.30;99.90;;;;;;5048766;28;20199;-80
2020/12/15 09:29:56;;;;;;;10.50;5.13;;;10.40;99.90;;;;;;5056299;28;20457;-81
2020/12/15 09:32:35;;;;;;;7.60;5.05;;;10.50;99.90;;;;;;5045932;28;20242;-83
2020/12/15 09:35:02;;;;;;;10.55;5.45;;;10.50;99.90;;;;;;5040033;28;20202;-82
2020/12/15 09:37:29;;;;;;;9.93;5.53;;;10.50;99.90;;;;;;5038586;28;20238;-82
2020/12/15 09:39:57;;;;;;;12.47;6.90;;;10.20;99.90;;;;;;5041754;28;20449;-83
2020/12/15 09:42:25;;;;;;;13.43;7.93;;;10.10;99.90;;;;;;5045919;28;20573;-84
2020/12/15 09:44:51;;;;;;;23.83;8.27;;;9.90;99.90;;;;;;5039946;28;20214;-76
2020/12/15 09:47:20;;;;;;;16.70;9.45;;;9.60;99.90;;;;;;5034425;28;20210;-82
2020/12/15 09:49:50;;;;;;;11.88;8.27;;;9.70;99.90;;;;;;5038956;28;20195;-82
2020/12/15 09:52:17;;;;;;;17.55;9.27;;;9.60;99.90;;;;;;5038806;28;20239;-82
2020/12/15 09:54:43;;;;;;;13.05;8.02;;;9.50;99.90;;;;;;5038584;28;20211;-82
2020/12/15 09:57:10;;;;;;;13.68;8.13;;;9.70;99.90;;;;;;5038979;28;20223;-83
2020/12/15 09:59:37;;;;;;;8.57;6.55;;;9.50;99.90;;;;;;5039044;28;20242;-83
2020/12/15 10:02:04;;;;;;;14.07;6.30;;;9.70;99.90;;;;;;5039892;28;20230;-83
2020/12/15 10:04:30;;;;;;;15.32;6.07;;;10.10;99.90;;;;;;5038009;28;20218;-83
2020/12/15 10:06:58;;;;;;;12.60;5.78;;;10.30;99.90;;;;;;5043274;28;20265;-82
2020/12/15 10:09:28;;;;;;;11.60;6.93;;;10.50;99.90;;;;;;5028637;28;20290;-82
2020/12/15 10:11:55;;;;;;;11.65;7.10;;;10.60;99.90;;;;;;5036410;28;20481;-77
2020/12/15 10:14:22;;;;;;;8.57;5.50;;;10.60;99.90;;;;;;5034062;28;20207;-81
2020/12/15 10:16:48;;;;;;;15.50;6.60;;;10.70;99.90;;;;;;5037583;28;20500;-83
2020/12/15 10:19:15;;;;;;;10.27;5.90;;;10.70;99.90;;;;;;5018607;28;20478;-83
2020/12/15 10:21:42;;;;;;;12.60;5.43;;;10.80;99.90;;;;;;5051169;28;20500;-83
2020/12/15 10:24:09;;;;;;;8.07;5.90;;;10.90;99.90;;;;;;5060555;28;20455;-83
2020/12/15 10:26:36;;;;;;;11.00;6.53;;;10.90;99.90;;;;;;5060095;28;20453;-83
2020/12/15 10:29:02;;;;;;;13.60;6.37;;;10.90;99.90;;;;;;5057404;28;20449;-83
2020/12/15 10:31:29;;;;;;;11.77;5.77;;;11.00;99.90;;;;;;5058185;28;20473;-83
2020/12/15 10:33:55;;;;;;;10.87;5.63;;;11.10;99.90;;;;;;5057719;28;20509;-82
2020/12/15 10:36:22;;;;;;;12.43;6.60;;;11.10;99.90;;;;;;5059089;28;20456;-83
2020/12/15 10:38:49;;;;;;;9.50;6.67;;;11.20;99.90;;;;;;5057440;28;20500;-83
2020/12/15 10:41:16;;;;;;;13.63;7.10;;;11.20;99.90;;;;;;5055226;28;20478;-82
2020/12/15 10:43:43;;;;;;;9.83;6.57;;;11.10;99.90;;;;;;5038898;28;20445;-83
2020/12/15 10:46:10;;;;;;;10.70;5.90;;;11.10;99.90;;;;;;5039886;28;20507;-82
2020/12/15 10:48:36;;;;;;;9.13;6.83;;;11.20;99.90;;;;;;5055207;28;20467;-84
2020/12/15 10:51:03;;;;;;;14.37;6.40;;;11.20;99.90;;;;;;5060255;28;20647;-84
2020/12/15 10:53:29;;;;;;;9.00;6.73;;;11.20;99.90;;;;;;5062522;28;20420;-83
2020/12/15 10:55:58;;;;;;;11.50;5.83;;;11.30;99.90;;;;;;5064443;28;20448;-83
2020/12/15 10:58:26;;;;;;;17.13;6.40;;;11.30;99.90;;;;;;5059612;28;20481;-84
2020/12/15 11:00:53;;;;;;;11.23;7.40;;;11.40;99.90;;;;;;5054969;28;20452;-83
2020/12/15 11:03:19;;;;;;;10.37;7.37;;;11.30;99.90;;;;;;5055204;28;20815;-82
2020/12/15 11:05:46;;;;;;;15.40;8.60;;;11.20;99.90;;;;;;5055100;28;20443;-83
2020/12/15 11:08:12;;;;;;;9.30;6.33;;;11.20;99.90;;;;;;5054482;28;20927;-83
2020/12/15 11:10:39;;;;;;;10.53;6.20;;;11.20;99.90;;;;;;5054500;28;20455;-83
2020/12/15 11:13:05;;;;;;;9.00;5.73;;;11.50;99.90;;;;;;5036188;28;20462;-83
2020/12/15 11:15:33;;;;;;;8.87;5.60;;;11.50;99.90;;;;;;5049038;28;20481;-83
2020/12/15 11:18:00;;;;;;;13.47;7.50;;;11.40;99.90;;;;;;5058094;28;20527;-83
2020/12/15 11:20:27;;;;;;;12.50;7.20;;;11.50;99.90;;;;;;5058269;28;20920;-82
2020/12/15 11:22:53;;;;;;;8.60;6.23;;;11.30;99.90;;;;;;5058559;28;20518;-83
2020/12/15 11:25:20;;;;;;;11.07;7.00;;;11.30;99.90;;;;;;5059664;28;20517;-83
2020/12/15 11:27:46;;;;;;;12.20;6.13;;;11.30;99.90;;;;;;5053631;28;20613;-83
2020/12/15 11:30:13;;;;;;;11.83;7.30;;;11.40;99.90;;;;;;5040577;28;20454;-82
2020/12/15 11:32:41;;;;;;;10.40;6.40;;;11.40;99.90;;;;;;5049405;28;20523;-83
2020/12/15 11:35:07;;;;;;;10.73;6.97;;;11.40;99.90;;;;;;5044969;28;20450;-82
2020/12/15 11:37:38;;;;;;;11.77;7.00;;;11.50;99.90;;;;;;5037893;28;20519;-84
2020/12/15 11:40:04;;;;;;;13.70;7.80;;;11.50;99.90;;;;;;5036387;28;20455;-84
2020/12/15 11:42:31;;;;;;;12.47;6.50;;;11.40;99.90;;;;;;5038284;28;20481;-83
2020/12/15 11:44:57;;;;;;;14.10;7.40;;;11.40;99.90;;;;;;5056223;28;20449;-83
2020/12/15 11:47:24;;;;;;;10.67;6.73;;;11.50;99.90;;;;;;5041769;28;20923;-78
2020/12/15 11:49:51;;;;;;;11.17;6.77;;;11.50;99.90;;;;;;5031719;28;20961;-78
2020/12/15 11:52:18;;;;;;;9.53;6.90;;;11.60;99.90;;;;;;5033687;28;20473;-78
2020/12/15 11:54:45;;;;;;;11.27;7.63;;;11.70;99.90;;;;;;5035026;28;20449;-78
2020/12/15 11:57:14;;;;;;;10.30;8.33;;;11.70;99.90;;;;;;5034919;28;20489;-77
2020/12/15 11:59:40;;;;;;;11.67;7.60;;;11.70;99.90;;;;;;5035737;28;20484;-83
2020/12/15 12:02:07;;;;;;;11.20;6.67;;;11.80;99.90;;;;;;5041134;28;20459;-80
2020/12/15 12:04:34;;;;;;;11.20;7.40;;;11.70;99.90;;;;;;5038178;28;20507;-81
2020/12/15 12:07:01;;;;;;;9.60;7.40;;;11.80;99.90;;;;;;5034294;28;20429;-80
2020/12/15 12:09:28;;;;;;;10.70;7.53;;;12.00;99.90;;;;;;5035832;28;20429;-83
2020/12/15 12:11:55;;;;;;;11.37;7.77;;;12.10;99.90;;;;;;5035950;28;20481;-83
2020/12/15 12:14:21;;;;;;;11.23;7.07;;;12.20;99.90;;;;;;5037585;28;20461;-83
2020/12/15 12:16:48;;;;;;;12.70;7.23;;;12.30;99.90;;;;;;5037018;28;20490;-83
2020/12/15 12:19:14;;;;;;;12.63;8.10;;;12.40;99.90;;;;;;5042110;28;20593;-82
2020/12/15 12:21:41;;;;;;;9.70;7.00;;;12.40;99.90;;;;;;5044327;28;20476;-83
2020/12/15 12:24:09;;;;;;;10.67;7.10;;;12.50;99.90;;;;;;5037064;28;20473;-83
2020/12/15 12:26:35;;;;;;;12.70;7.70;;;12.60;99.90;;;;;;5036722;28;20417;-83
2020/12/15 12:29:02;;;;;;;13.43;8.00;;;12.60;99.90;;;;;;5038921;28;20982;-83
2020/12/15 12:31:29;;;;;;;18.30;7.83;;;12.70;99.90;;;;;;5043742;28;20477;-82
2020/12/15 12:33:55;;;;;;;10.93;7.73;;;12.80;99.90;;;;;;5040037;28;20425;-83
2020/12/15 12:36:22;;;;;;;12.60;8.23;;;12.70;99.90;;;;;;5040165;28;20588;-83
2020/12/15 12:38:49;;;;;;;11.53;6.70;;;12.80;99.90;;;;;;5037645;28;20506;-84
2020/12/15 12:41:16;;;;;;;7.83;5.63;;;12.90;99.90;;;;;;5039876;28;20489;-83
2020/12/15 12:43:44;;;;;;;12.93;6.60;;;12.90;99.90;;;;;;5041512;28;20456;-83
2020/12/15 12:46:15;;;;;;;10.40;6.13;;;12.80;99.90;;;;;;5039725;28;20439;-83
2020/12/15 12:48:41;;;;;;;13.30;7.27;;;12.50;99.90;;;;;;5036059;28;20450;-81
2020/12/15 12:51:08;;;;;;;10.43;6.57;;;12.30;99.90;;;;;;5036322;28;20448;-82
2020/12/15 12:53:35;;;;;;;15.83;7.20;;;12.10;99.90;;;;;;5034630;28;20753;-84